sensor_id;sensor_type;location;lat;lon;timestamp;temperature;humidity
48686;DHT22;34485;51.536;3.816;2023-06-22T00:00:51;17.20;99.90
48686;DHT22;34485;51.536;3.816;2023-06-22T00:03:18;17.20;99.90
48686;DHT22;34485;51.536;3.816;2023-06-22T00:05:44;17.10;99.90
48686;DHT22;34485;51.536;3.816;2023-06-22T00:08:10;17.10;99.90
48686;DHT22;34485;51.536;3.816;2023-06-22T00:10:35;17.00;99.90
48686;DHT22;34485;51.536;3.816;2023-06-22T00:13:01;16.90;99.90
48686;DHT22;34485;51.536;3.816;2023-06-22T00:15:27;16.80;99.90
48686;DHT22;34485;51.536;3.816;2023-06-22T00:17:52;16.80;99.90
48686;DHT22;34485;51.536;3.816;2023-06-22T00:20:18;16.80;99.90
48686;DHT22;34485;51.536;3.816;2023-06-22T00:22:44;16.70;99.90
48686;DHT22;34485;51.536;3.816;2023-06-22T00:25:11;16.70;99.90
48686;DHT22;34485;51.536;3.816;2023-06-22T00:27:37;16.70;99.90
48686;DHT22;34485;51.536;3.816;2023-06-22T00:30:03;16.70;99.90
48686;DHT22;34485;51.536;3.816;2023-06-22T00:32:29;16.70;99.90
48686;DHT22;34485;51.536;3.816;2023-06-22T00:34:55;16.70;99.90
48686;DHT22;34485;51.536;3.816;2023-06-22T00:37:20;16.70;99.90
48686;DHT22;34485;51.536;3.816;2023-06-22T00:39:51;16.70;99.90
48686;DHT22;34485;51.536;3.816;2023-06-22T00:42:17;16.70;99.90
48686;DHT22;34485;51.536;3.816;2023-06-22T00:44:43;16.70;99.90
48686;DHT22;34485;51.536;3.816;2023-06-22T00:47:10;16.70;99.90
48686;DHT22;34485;51.536;3.816;2023-06-22T00:49:38;16.80;99.90
48686;DHT22;34485;51.536;3.816;2023-06-22T00:52:05;16.80;99.90
48686;DHT22;34485;51.536;3.816;2023-06-22T00:54:35;16.70;99.90
48686;DHT22;34485;51.536;3.816;2023-06-22T00:57:01;16.80;99.90
48686;DHT22;34485;51.536;3.816;2023-06-22T00:59:27;16.70;99.90
48686;DHT22;34485;51.536;3.816;2023-06-22T01:01:54;16.70;99.90
48686;DHT22;34485;51.536;3.816;2023-06-22T01:04:24;16.70;99.90
48686;DHT22;34485;51.536;3.816;2023-06-22T01:09:32;16.70;99.90
48686;DHT22;34485;51.536;3.816;2023-06-22T01:12:04;16.70;99.90
48686;DHT22;34485;51.536;3.816;2023-06-22T01:14:46;16.70;99.90
48686;DHT22;34485;51.536;3.816;2023-06-22T01:17:13;16.70;99.90
48686;DHT22;34485;51.536;3.816;2023-06-22T01:19:46;16.70;99.90
48686;DHT22;34485;51.536;3.816;2023-06-22T01:22:16;16.60;99.90
48686;DHT22;34485;51.536;3.816;2023-06-22T01:30:07;16.60;99.90
48686;DHT22;34485;51.536;3.816;2023-06-22T01:32:37;16.60;99.90
48686;DHT22;34485;51.536;3.816;2023-06-22T01:35:05;16.60;99.90
48686;DHT22;34485;51.536;3.816;2023-06-22T01:37:34;16.60;99.90
48686;DHT22;34485;51.536;3.816;2023-06-22T01:40:01;16.50;99.90
48686;DHT22;34485;51.536;3.816;2023-06-22T01:42:27;16.50;99.90
48686;DHT22;34485;51.536;3.816;2023-06-22T01:44:54;16.50;99.90
48686;DHT22;34485;51.536;3.816;2023-06-22T01:47:21;16.40;99.90
48686;DHT22;34485;51.536;3.816;2023-06-22T01:49:47;16.40;99.90
48686;DHT22;34485;51.536;3.816;2023-06-22T01:52:13;16.40;99.90
48686;DHT22;34485;51.536;3.816;2023-06-22T01:54:39;16.40;99.90
48686;DHT22;34485;51.536;3.816;2023-06-22T01:57:07;16.40;99.90
48686;DHT22;34485;51.536;3.816;2023-06-22T01:59:36;16.40;99.90
48686;DHT22;34485;51.536;3.816;2023-06-22T02:02:07;16.40;99.90
48686;DHT22;34485;51.536;3.816;2023-06-22T02:04:48;16.40;99.90
48686;DHT22;34485;51.536;3.816;2023-06-22T02:07:15;16.40;99.90
48686;DHT22;34485;51.536;3.816;2023-06-22T02:09:44;16.40;99.90
48686;DHT22;34485;51.536;3.816;2023-06-22T02:12:13;16.30;99.90
48686;DHT22;34485;51.536;3.816;2023-06-22T02:14:40;16.30;99.90
48686;DHT22;34485;51.536;3.816;2023-06-22T02:17:07;16.30;99.90
48686;DHT22;34485;51.536;3.816;2023-06-22T02:19:36;16.30;99.90
48686;DHT22;34485;51.536;3.816;2023-06-22T02:22:03;16.30;99.90
48686;DHT22;34485;51.536;3.816;2023-06-22T02:24:28;16.30;99.90
48686;DHT22;34485;51.536;3.816;2023-06-22T02:26:57;16.20;99.90
48686;DHT22;34485;51.536;3.816;2023-06-22T02:29:23;16.20;99.90
48686;DHT22;34485;51.536;3.816;2023-06-22T02:31:49;16.20;99.90
48686;DHT22;34485;51.536;3.816;2023-06-22T02:34:14;16.20;99.90
48686;DHT22;34485;51.536;3.816;2023-06-22T02:36:44;16.20;99.90
48686;DHT22;34485;51.536;3.816;2023-06-22T02:39:25;16.20;99.90
48686;DHT22;34485;51.536;3.816;2023-06-22T02:41:52;16.20;99.90
48686;DHT22;34485;51.536;3.816;2023-06-22T02:44:18;16.10;99.90
48686;DHT22;34485;51.536;3.816;2023-06-22T02:46:45;16.10;99.90
48686;DHT22;34485;51.536;3.816;2023-06-22T02:49:10;16.00;99.90
48686;DHT22;34485;51.536;3.816;2023-06-22T02:51:38;16.00;99.90
48686;DHT22;34485;51.536;3.816;2023-06-22T02:54:05;16.00;99.90
48686;DHT22;34485;51.536;3.816;2023-06-22T02:56:31;16.00;99.90
48686;DHT22;34485;51.536;3.816;2023-06-22T02:58:56;16.00;99.90
48686;DHT22;34485;51.536;3.816;2023-06-22T03:01:27;16.00;99.90
48686;DHT22;34485;51.536;3.816;2023-06-22T03:03:56;16.00;99.90
48686;DHT22;34485;51.536;3.816;2023-06-22T03:06:22;16.00;99.90
48686;DHT22;34485;51.536;3.816;2023-06-22T03:08:49;16.00;99.90
48686;DHT22;34485;51.536;3.816;2023-06-22T03:11:15;16.00;99.90
48686;DHT22;34485;51.536;3.816;2023-06-22T03:13:40;16.00;99.90
48686;DHT22;34485;51.536;3.816;2023-06-22T03:16:06;16.00;99.90
48686;DHT22;34485;51.536;3.816;2023-06-22T03:18:32;16.00;99.90
48686;DHT22;34485;51.536;3.816;2023-06-22T03:20:57;16.00;99.90
48686;DHT22;34485;51.536;3.816;2023-06-22T03:23:23;16.00;99.90
48686;DHT22;34485;51.536;3.816;2023-06-22T03:25:49;16.00;99.90
48686;DHT22;34485;51.536;3.816;2023-06-22T03:28:15;16.00;99.90
48686;DHT22;34485;51.536;3.816;2023-06-22T03:30:40;16.00;99.90
48686;DHT22;34485;51.536;3.816;2023-06-22T03:33:06;16.00;99.90
48686;DHT22;34485;51.536;3.816;2023-06-22T03:35:31;16.00;99.90
48686;DHT22;34485;51.536;3.816;2023-06-22T03:37:57;16.00;99.90
48686;DHT22;34485;51.536;3.816;2023-06-22T03:40:23;16.00;99.90
48686;DHT22;34485;51.536;3.816;2023-06-22T03:42:48;16.00;99.90
48686;DHT22;34485;51.536;3.816;2023-06-22T03:45:14;16.00;99.90
48686;DHT22;34485;51.536;3.816;2023-06-22T03:47:40;16.00;99.90
48686;DHT22;34485;51.536;3.816;2023-06-22T03:50:05;16.00;99.90
48686;DHT22;34485;51.536;3.816;2023-06-22T03:52:31;16.10;99.90
48686;DHT22;34485;51.536;3.816;2023-06-22T03:54:58;16.10;99.90
48686;DHT22;34485;51.536;3.816;2023-06-22T03:57:23;16.10;99.90
48686;DHT22;34485;51.536;3.816;2023-06-22T03:59:49;16.10;99.90
48686;DHT22;34485;51.536;3.816;2023-06-22T04:02:15;16.20;99.90
48686;DHT22;34485;51.536;3.816;2023-06-22T04:04:40;16.20;99.90
48686;DHT22;34485;51.536;3.816;2023-06-22T04:07:06;16.30;99.90
48686;DHT22;34485;51.536;3.816;2023-06-22T04:09:31;16.40;99.90
48686;DHT22;34485;51.536;3.816;2023-06-22T04:11:57;16.50;99.90
48686;DHT22;34485;51.536;3.816;2023-06-22T04:14:23;16.50;99.90
48686;DHT22;34485;51.536;3.816;2023-06-22T04:16:48;16.60;99.90
48686;DHT22;34485;51.536;3.816;2023-06-22T04:19:14;16.70;99.90
48686;DHT22;34485;51.536;3.816;2023-06-22T04:21:45;16.80;99.90
48686;DHT22;34485;51.536;3.816;2023-06-22T04:24:11;17.00;99.90
48686;DHT22;34485;51.536;3.816;2023-06-22T04:26:37;17.00;99.90
48686;DHT22;34485;51.536;3.816;2023-06-22T04:29:04;17.10;99.90
48686;DHT22;34485;51.536;3.816;2023-06-22T04:31:34;17.30;99.90
48686;DHT22;34485;51.536;3.816;2023-06-22T04:34:03;17.40;99.90
48686;DHT22;34485;51.536;3.816;2023-06-22T04:36:39;17.50;99.90
48686;DHT22;34485;51.536;3.816;2023-06-22T04:39:10;17.50;99.90
48686;DHT22;34485;51.536;3.816;2023-06-22T04:41:36;17.50;99.90
48686;DHT22;34485;51.536;3.816;2023-06-22T04:46:35;17.60;99.90
48686;DHT22;34485;51.536;3.816;2023-06-22T04:49:06;17.70;99.90
48686;DHT22;34485;51.536;3.816;2023-06-22T04:51:39;17.80;99.90
48686;DHT22;34485;51.536;3.816;2023-06-22T04:54:05;18.00;99.90
48686;DHT22;34485;51.536;3.816;2023-06-22T04:56:31;18.10;99.90
48686;DHT22;34485;51.536;3.816;2023-06-22T04:58:57;18.10;99.90
48686;DHT22;34485;51.536;3.816;2023-06-22T05:01:25;18.20;99.90
48686;DHT22;34485;51.536;3.816;2023-06-22T05:03:51;18.30;99.90
48686;DHT22;34485;51.536;3.816;2023-06-22T05:06:21;18.30;99.90
48686;DHT22;34485;51.536;3.816;2023-06-22T05:08:47;18.40;99.90
48686;DHT22;34485;51.536;3.816;2023-06-22T05:11:12;18.50;99.90
48686;DHT22;34485;51.536;3.816;2023-06-22T05:13:38;18.70;99.90
48686;DHT22;34485;51.536;3.816;2023-06-22T05:16:04;18.80;99.90
48686;DHT22;34485;51.536;3.816;2023-06-22T05:18:31;18.90;99.90
48686;DHT22;34485;51.536;3.816;2023-06-22T05:20:58;19.00;99.90
48686;DHT22;34485;51.536;3.816;2023-06-22T05:23:24;19.10;99.90
48686;DHT22;34485;51.536;3.816;2023-06-22T05:25:51;19.20;99.90
48686;DHT22;34485;51.536;3.816;2023-06-22T05:28:17;19.20;99.90
48686;DHT22;34485;51.536;3.816;2023-06-22T05:30:42;19.30;99.90
48686;DHT22;34485;51.536;3.816;2023-06-22T05:33:08;19.40;99.90
48686;DHT22;34485;51.536;3.816;2023-06-22T05:35:33;19.50;99.90
48686;DHT22;34485;51.536;3.816;2023-06-22T05:37:59;19.50;99.90
48686;DHT22;34485;51.536;3.816;2023-06-22T05:40:24;19.40;99.90
48686;DHT22;34485;51.536;3.816;2023-06-22T05:42:50;19.40;99.90
48686;DHT22;34485;51.536;3.816;2023-06-22T05:45:16;19.30;99.90
48686;DHT22;34485;51.536;3.816;2023-06-22T05:47:41;19.30;99.90
48686;DHT22;34485;51.536;3.816;2023-06-22T05:50:08;19.20;99.90
48686;DHT22;34485;51.536;3.816;2023-06-22T05:52:34;19.30;99.90
48686;DHT22;34485;51.536;3.816;2023-06-22T05:55:02;19.40;99.90
48686;DHT22;34485;51.536;3.816;2023-06-22T05:57:28;19.50;99.90
48686;DHT22;34485;51.536;3.816;2023-06-22T05:59:53;19.60;99.90
48686;DHT22;34485;51.536;3.816;2023-06-22T06:02:19;19.70;99.90
48686;DHT22;34485;51.536;3.816;2023-06-22T06:04:45;19.70;99.90
48686;DHT22;34485;51.536;3.816;2023-06-22T06:07:11;19.80;99.90
48686;DHT22;34485;51.536;3.816;2023-06-22T06:09:36;19.90;99.90
48686;DHT22;34485;51.536;3.816;2023-06-22T06:12:02;20.00;99.90
48686;DHT22;34485;51.536;3.816;2023-06-22T06:14:28;20.00;99.90
48686;DHT22;34485;51.536;3.816;2023-06-22T06:16:54;20.20;99.90
48686;DHT22;34485;51.536;3.816;2023-06-22T06:19:19;20.20;99.90
48686;DHT22;34485;51.536;3.816;2023-06-22T06:21:45;20.30;99.90
48686;DHT22;34485;51.536;3.816;2023-06-22T06:24:11;20.40;99.90
48686;DHT22;34485;51.536;3.816;2023-06-22T06:26:37;20.60;99.90
48686;DHT22;34485;51.536;3.816;2023-06-22T06:29:03;20.70;99.90
48686;DHT22;34485;51.536;3.816;2023-06-22T06:31:29;20.80;99.90
48686;DHT22;34485;51.536;3.816;2023-06-22T06:33:54;20.70;99.90
48686;DHT22;34485;51.536;3.816;2023-06-22T06:36:20;20.80;99.90
48686;DHT22;34485;51.536;3.816;2023-06-22T06:38:46;20.90;99.90
48686;DHT22;34485;51.536;3.816;2023-06-22T06:41:15;20.90;99.90
48686;DHT22;34485;51.536;3.816;2023-06-22T06:43:41;21.00;99.90
48686;DHT22;34485;51.536;3.816;2023-06-22T06:46:09;21.10;99.90
48686;DHT22;34485;51.536;3.816;2023-06-22T06:48:34;21.20;99.90
48686;DHT22;34485;51.536;3.816;2023-06-22T06:51:00;21.20;99.90
48686;DHT22;34485;51.536;3.816;2023-06-22T06:53:26;21.20;99.90
48686;DHT22;34485;51.536;3.816;2023-06-22T06:55:52;21.30;99.80
48686;DHT22;34485;51.536;3.816;2023-06-22T06:58:18;21.30;99.90
48686;DHT22;34485;51.536;3.816;2023-06-22T07:00:43;21.40;99.90
48686;DHT22;34485;51.536;3.816;2023-06-22T07:03:09;21.30;99.10
48686;DHT22;34485;51.536;3.816;2023-06-22T07:05:35;21.30;99.00
48686;DHT22;34485;51.536;3.816;2023-06-22T07:08:01;21.20;99.00
48686;DHT22;34485;51.536;3.816;2023-06-22T07:10:28;21.30;99.90
48686;DHT22;34485;51.536;3.816;2023-06-22T07:12:54;21.40;98.80
48686;DHT22;34485;51.536;3.816;2023-06-22T07:15:19;21.50;98.60
48686;DHT22;34485;51.536;3.816;2023-06-22T07:17:45;21.60;98.70
48686;DHT22;34485;51.536;3.816;2023-06-22T07:20:11;21.70;97.80
48686;DHT22;34485;51.536;3.816;2023-06-22T07:22:42;21.70;97.30
48686;DHT22;34485;51.536;3.816;2023-06-22T07:25:08;21.70;97.40
48686;DHT22;34485;51.536;3.816;2023-06-22T07:27:39;21.70;97.10
48686;DHT22;34485;51.536;3.816;2023-06-22T07:30:08;21.80;97.00
48686;DHT22;34485;51.536;3.816;2023-06-22T07:32:35;21.90;96.60
48686;DHT22;34485;51.536;3.816;2023-06-22T07:35:00;22.00;95.90
48686;DHT22;34485;51.536;3.816;2023-06-22T07:37:27;22.10;95.90
48686;DHT22;34485;51.536;3.816;2023-06-22T07:39:53;22.20;97.10
48686;DHT22;34485;51.536;3.816;2023-06-22T07:42:26;22.40;95.80
48686;DHT22;34485;51.536;3.816;2023-06-22T07:44:53;22.40;95.60
48686;DHT22;34485;51.536;3.816;2023-06-22T07:47:18;22.20;96.30
48686;DHT22;34485;51.536;3.816;2023-06-22T07:49:48;22.30;96.60
48686;DHT22;34485;51.536;3.816;2023-06-22T07:52:13;22.30;96.30
48686;DHT22;34485;51.536;3.816;2023-06-22T07:54:39;22.30;95.70
48686;DHT22;34485;51.536;3.816;2023-06-22T07:57:05;22.20;95.80
48686;DHT22;34485;51.536;3.816;2023-06-22T07:59:30;22.20;94.50
48686;DHT22;34485;51.536;3.816;2023-06-22T08:01:56;22.20;95.10
48686;DHT22;34485;51.536;3.816;2023-06-22T08:04:22;22.20;94.60
48686;DHT22;34485;51.536;3.816;2023-06-22T08:06:47;22.30;95.00
48686;DHT22;34485;51.536;3.816;2023-06-22T08:09:14;22.30;94.30
48686;DHT22;34485;51.536;3.816;2023-06-22T08:11:40;22.30;94.40
48686;DHT22;34485;51.536;3.816;2023-06-22T08:14:05;22.50;93.90
48686;DHT22;34485;51.536;3.816;2023-06-22T08:16:31;22.90;99.70
48686;DHT22;34485;51.536;3.816;2023-06-22T08:18:57;23.10;91.40
48686;DHT22;34485;51.536;3.816;2023-06-22T08:21:23;23.50;90.70
48686;DHT22;34485;51.536;3.816;2023-06-22T08:23:48;23.60;90.30
48686;DHT22;34485;51.536;3.816;2023-06-22T08:26:14;23.70;87.40
48686;DHT22;34485;51.536;3.816;2023-06-22T08:28:40;23.70;88.70
48686;DHT22;34485;51.536;3.816;2023-06-22T08:31:06;23.60;85.80
48686;DHT22;34485;51.536;3.816;2023-06-22T08:33:31;23.60;87.90
48686;DHT22;34485;51.536;3.816;2023-06-22T08:35:58;23.70;86.50
48686;DHT22;34485;51.536;3.816;2023-06-22T08:38:25;23.60;85.50
48686;DHT22;34485;51.536;3.816;2023-06-22T08:40:50;23.60;85.20
48686;DHT22;34485;51.536;3.816;2023-06-22T08:43:16;23.30;84.70
48686;DHT22;34485;51.536;3.816;2023-06-22T08:45:42;23.30;85.50
48686;DHT22;34485;51.536;3.816;2023-06-22T08:48:07;23.20;84.70
48686;DHT22;34485;51.536;3.816;2023-06-22T08:50:33;23.10;86.00
48686;DHT22;34485;51.536;3.816;2023-06-22T08:52:58;23.10;89.80
48686;DHT22;34485;51.536;3.816;2023-06-22T08:55:24;23.10;88.30
48686;DHT22;34485;51.536;3.816;2023-06-22T08:57:49;23.20;89.60
48686;DHT22;34485;51.536;3.816;2023-06-22T09:00:16;23.10;83.80
48686;DHT22;34485;51.536;3.816;2023-06-22T09:02:44;23.20;86.20
48686;DHT22;34485;51.536;3.816;2023-06-22T09:05:10;23.20;86.70
48686;DHT22;34485;51.536;3.816;2023-06-22T09:07:35;23.20;85.30
48686;DHT22;34485;51.536;3.816;2023-06-22T09:10:01;23.10;84.50
48686;DHT22;34485;51.536;3.816;2023-06-22T09:12:28;23.00;84.40
48686;DHT22;34485;51.536;3.816;2023-06-22T09:14:55;22.90;87.70
48686;DHT22;34485;51.536;3.816;2023-06-22T09:17:22;22.90;86.30
48686;DHT22;34485;51.536;3.816;2023-06-22T09:19:48;22.80;86.30
48686;DHT22;34485;51.536;3.816;2023-06-22T09:22:14;22.70;85.70
48686;DHT22;34485;51.536;3.816;2023-06-22T09:24:39;22.80;86.10
48686;DHT22;34485;51.536;3.816;2023-06-22T09:27:05;22.70;85.30
48686;DHT22;34485;51.536;3.816;2023-06-22T09:29:31;22.80;85.40
48686;DHT22;34485;51.536;3.816;2023-06-22T09:32:01;22.70;87.70
48686;DHT22;34485;51.536;3.816;2023-06-22T09:34:27;22.70;85.80
48686;DHT22;34485;51.536;3.816;2023-06-22T09:36:53;22.70;85.70
48686;DHT22;34485;51.536;3.816;2023-06-22T09:39:18;22.80;87.10
48686;DHT22;34485;51.536;3.816;2023-06-22T09:41:44;22.80;88.20
48686;DHT22;34485;51.536;3.816;2023-06-22T09:44:10;22.90;86.30
48686;DHT22;34485;51.536;3.816;2023-06-22T09:46:35;23.00;87.00
48686;DHT22;34485;51.536;3.816;2023-06-22T09:49:01;23.00;86.50
48686;DHT22;34485;51.536;3.816;2023-06-22T09:51:27;23.00;88.40
48686;DHT22;34485;51.536;3.816;2023-06-22T09:53:52;23.00;85.60
48686;DHT22;34485;51.536;3.816;2023-06-22T09:56:19;23.00;89.20
48686;DHT22;34485;51.536;3.816;2023-06-22T09:58:46;23.00;90.40
48686;DHT22;34485;51.536;3.816;2023-06-22T10:01:12;23.10;90.10
48686;DHT22;34485;51.536;3.816;2023-06-22T10:03:40;23.00;90.50
48686;DHT22;34485;51.536;3.816;2023-06-22T10:06:07;23.00;90.30
48686;DHT22;34485;51.536;3.816;2023-06-22T10:08:33;22.90;90.90
48686;DHT22;34485;51.536;3.816;2023-06-22T10:10:59;22.90;90.70
48686;DHT22;34485;51.536;3.816;2023-06-22T10:13:24;22.90;90.60
48686;DHT22;34485;51.536;3.816;2023-06-22T10:15:50;22.80;90.40
48686;DHT22;34485;51.536;3.816;2023-06-22T10:18:18;22.70;90.60
48686;DHT22;34485;51.536;3.816;2023-06-22T10:20:45;22.80;90.70
48686;DHT22;34485;51.536;3.816;2023-06-22T10:23:10;22.70;90.60
48686;DHT22;34485;51.536;3.816;2023-06-22T10:25:36;22.60;91.00
48686;DHT22;34485;51.536;3.816;2023-06-22T10:28:01;22.60;91.20
48686;DHT22;34485;51.536;3.816;2023-06-22T10:30:27;22.60;91.10
48686;DHT22;34485;51.536;3.816;2023-06-22T10:32:54;22.50;90.60
48686;DHT22;34485;51.536;3.816;2023-06-22T10:35:20;22.50;90.90
48686;DHT22;34485;51.536;3.816;2023-06-22T10:37:46;22.50;90.90
48686;DHT22;34485;51.536;3.816;2023-06-22T10:40:16;22.50;91.00
48686;DHT22;34485;51.536;3.816;2023-06-22T10:42:42;22.50;91.20
48686;DHT22;34485;51.536;3.816;2023-06-22T10:45:08;22.50;92.00
48686;DHT22;34485;51.536;3.816;2023-06-22T10:47:34;22.50;91.80
48686;DHT22;34485;51.536;3.816;2023-06-22T10:50:00;22.60;91.80
48686;DHT22;34485;51.536;3.816;2023-06-22T10:52:26;22.60;91.90
48686;DHT22;34485;51.536;3.816;2023-06-22T10:54:52;22.60;91.50
48686;DHT22;34485;51.536;3.816;2023-06-22T10:57:18;22.70;93.10
48686;DHT22;34485;51.536;3.816;2023-06-22T10:59:44;22.70;93.50
48686;DHT22;34485;51.536;3.816;2023-06-22T11:02:09;22.80;93.90
48686;DHT22;34485;51.536;3.816;2023-06-22T11:04:35;22.70;94.40
48686;DHT22;34485;51.536;3.816;2023-06-22T11:07:01;22.80;95.10
48686;DHT22;34485;51.536;3.816;2023-06-22T11:09:26;22.90;95.10
48686;DHT22;34485;51.536;3.816;2023-06-22T11:11:52;22.80;95.60
48686;DHT22;34485;51.536;3.816;2023-06-22T11:14:21;22.80;95.80
48686;DHT22;34485;51.536;3.816;2023-06-22T11:16:47;22.80;95.20
48686;DHT22;34485;51.536;3.816;2023-06-22T11:19:13;22.70;95.80
48686;DHT22;34485;51.536;3.816;2023-06-22T11:21:39;22.60;95.50
48686;DHT22;34485;51.536;3.816;2023-06-22T11:24:05;22.60;95.60
48686;DHT22;34485;51.536;3.816;2023-06-22T11:26:30;22.50;95.80
48686;DHT22;34485;51.536;3.816;2023-06-22T11:28:57;22.50;96.10
48686;DHT22;34485;51.536;3.816;2023-06-22T11:31:23;22.50;95.80
48686;DHT22;34485;51.536;3.816;2023-06-22T11:33:49;22.50;95.60
48686;DHT22;34485;51.536;3.816;2023-06-22T11:36:15;22.40;95.60
48686;DHT22;34485;51.536;3.816;2023-06-22T11:38:41;22.30;95.50
48686;DHT22;34485;51.536;3.816;2023-06-22T11:41:07;22.20;96.30
48686;DHT22;34485;51.536;3.816;2023-06-22T11:43:33;22.10;96.60
48686;DHT22;34485;51.536;3.816;2023-06-22T11:46:00;22.10;96.40
48686;DHT22;34485;51.536;3.816;2023-06-22T11:48:26;22.00;96.60
48686;DHT22;34485;51.536;3.816;2023-06-22T11:50:52;22.00;96.20
48686;DHT22;34485;51.536;3.816;2023-06-22T11:53:17;21.90;96.60
48686;DHT22;34485;51.536;3.816;2023-06-22T11:55:44;21.90;96.60
48686;DHT22;34485;51.536;3.816;2023-06-22T11:58:10;21.90;97.10
48686;DHT22;34485;51.536;3.816;2023-06-22T12:00:37;21.90;96.40
48686;DHT22;34485;51.536;3.816;2023-06-22T12:03:03;21.80;96.70
48686;DHT22;34485;51.536;3.816;2023-06-22T12:05:28;21.90;97.30
48686;DHT22;34485;51.536;3.816;2023-06-22T12:07:54;21.90;96.90
48686;DHT22;34485;51.536;3.816;2023-06-22T12:10:24;22.10;97.60
48686;DHT22;34485;51.536;3.816;2023-06-22T12:12:50;22.10;97.30
48686;DHT22;34485;51.536;3.816;2023-06-22T12:15:16;22.20;97.40
48686;DHT22;34485;51.536;3.816;2023-06-22T12:17:41;22.10;96.90
48686;DHT22;34485;51.536;3.816;2023-06-22T12:20:07;22.00;97.10
48686;DHT22;34485;51.536;3.816;2023-06-22T12:22:34;22.10;98.40
48686;DHT22;34485;51.536;3.816;2023-06-22T12:25:00;22.20;97.10
48686;DHT22;34485;51.536;3.816;2023-06-22T12:27:26;22.20;97.30
48686;DHT22;34485;51.536;3.816;2023-06-22T12:29:51;22.30;97.30
48686;DHT22;34485;51.536;3.816;2023-06-22T12:32:17;22.30;97.10
48686;DHT22;34485;51.536;3.816;2023-06-22T12:34:43;22.30;97.80
48686;DHT22;34485;51.536;3.816;2023-06-22T12:37:09;22.20;97.80
48686;DHT22;34485;51.536;3.816;2023-06-22T12:39:35;22.20;98.30
48686;DHT22;34485;51.536;3.816;2023-06-22T12:42:01;22.20;98.10
48686;DHT22;34485;51.536;3.816;2023-06-22T12:44:26;22.20;98.40
48686;DHT22;34485;51.536;3.816;2023-06-22T12:46:52;22.10;98.70
48686;DHT22;34485;51.536;3.816;2023-06-22T12:49:18;22.00;99.00
48686;DHT22;34485;51.536;3.816;2023-06-22T12:51:44;22.10;99.40
48686;DHT22;34485;51.536;3.816;2023-06-22T12:54:10;22.30;98.80
48686;DHT22;34485;51.536;3.816;2023-06-22T12:56:37;22.20;99.00
48686;DHT22;34485;51.536;3.816;2023-06-22T12:59:04;22.20;99.00
48686;DHT22;34485;51.536;3.816;2023-06-22T13:01:30;22.30;98.40
48686;DHT22;34485;51.536;3.816;2023-06-22T13:03:56;22.40;98.00
48686;DHT22;34485;51.536;3.816;2023-06-22T13:06:22;22.40;97.80
48686;DHT22;34485;51.536;3.816;2023-06-22T13:08:47;22.40;97.50
48686;DHT22;34485;51.536;3.816;2023-06-22T13:11:13;22.30;97.40
48686;DHT22;34485;51.536;3.816;2023-06-22T13:13:39;22.20;97.40
48686;DHT22;34485;51.536;3.816;2023-06-22T13:16:04;22.20;97.80
48686;DHT22;34485;51.536;3.816;2023-06-22T13:18:30;22.20;97.90
48686;DHT22;34485;51.536;3.816;2023-06-22T13:20:56;22.20;97.60
48686;DHT22;34485;51.536;3.816;2023-06-22T13:23:23;22.20;98.00
48686;DHT22;34485;51.536;3.816;2023-06-22T13:25:49;22.20;98.20
48686;DHT22;34485;51.536;3.816;2023-06-22T13:28:15;22.30;98.10
48686;DHT22;34485;51.536;3.816;2023-06-22T13:30:42;22.20;97.60
48686;DHT22;34485;51.536;3.816;2023-06-22T13:33:08;22.20;98.40
48686;DHT22;34485;51.536;3.816;2023-06-22T13:35:34;22.20;99.00
48686;DHT22;34485;51.536;3.816;2023-06-22T13:38:00;22.20;98.80
48686;DHT22;34485;51.536;3.816;2023-06-22T13:40:26;22.20;99.90
48686;DHT22;34485;51.536;3.816;2023-06-22T13:42:52;22.20;99.80
48686;DHT22;34485;51.536;3.816;2023-06-22T13:45:17;22.10;99.60
48686;DHT22;34485;51.536;3.816;2023-06-22T13:47:44;22.10;98.90
48686;DHT22;34485;51.536;3.816;2023-06-22T13:50:10;21.90;99.80
48686;DHT22;34485;51.536;3.816;2023-06-22T13:52:38;21.80;99.90
48686;DHT22;34485;51.536;3.816;2023-06-22T13:55:04;21.70;99.90
48686;DHT22;34485;51.536;3.816;2023-06-22T13:57:31;21.60;99.90
48686;DHT22;34485;51.536;3.816;2023-06-22T13:59:56;21.50;99.90
48686;DHT22;34485;51.536;3.816;2023-06-22T14:02:22;21.50;99.90
48686;DHT22;34485;51.536;3.816;2023-06-22T14:04:48;21.50;99.90
48686;DHT22;34485;51.536;3.816;2023-06-22T14:07:13;21.50;99.90
48686;DHT22;34485;51.536;3.816;2023-06-22T14:09:39;21.40;99.90
48686;DHT22;34485;51.536;3.816;2023-06-22T14:12:05;21.30;99.90
48686;DHT22;34485;51.536;3.816;2023-06-22T14:14:35;21.40;99.90
48686;DHT22;34485;51.536;3.816;2023-06-22T14:17:00;21.40;99.90
48686;DHT22;34485;51.536;3.816;2023-06-22T14:19:26;21.30;99.90
48686;DHT22;34485;51.536;3.816;2023-06-22T14:21:52;21.30;99.90
48686;DHT22;34485;51.536;3.816;2023-06-22T14:24:17;21.30;99.90
48686;DHT22;34485;51.536;3.816;2023-06-22T14:26:43;21.30;99.90
48686;DHT22;34485;51.536;3.816;2023-06-22T14:29:08;21.30;99.90
48686;DHT22;34485;51.536;3.816;2023-06-22T14:31:34;21.30;99.90
48686;DHT22;34485;51.536;3.816;2023-06-22T14:34:00;21.20;99.90
48686;DHT22;34485;51.536;3.816;2023-06-22T14:36:26;21.10;99.90
48686;DHT22;34485;51.536;3.816;2023-06-22T14:38:51;21.00;99.90
48686;DHT22;34485;51.536;3.816;2023-06-22T14:41:17;20.90;99.90
48686;DHT22;34485;51.536;3.816;2023-06-22T14:43:47;20.90;99.90
48686;DHT22;34485;51.536;3.816;2023-06-22T14:46:17;20.80;99.90
48686;DHT22;34485;51.536;3.816;2023-06-22T14:48:43;20.80;99.90
48686;DHT22;34485;51.536;3.816;2023-06-22T14:51:09;20.80;99.90
48686;DHT22;34485;51.536;3.816;2023-06-22T14:53:36;20.80;99.90
48686;DHT22;34485;51.536;3.816;2023-06-22T14:56:02;20.80;99.90
48686;DHT22;34485;51.536;3.816;2023-06-22T14:58:29;20.80;99.90
48686;DHT22;34485;51.536;3.816;2023-06-22T15:00:59;20.80;99.90
48686;DHT22;34485;51.536;3.816;2023-06-22T15:03:24;20.80;99.90
48686;DHT22;34485;51.536;3.816;2023-06-22T15:05:53;20.70;99.90
48686;DHT22;34485;51.536;3.816;2023-06-22T15:08:19;20.60;99.90
48686;DHT22;34485;51.536;3.816;2023-06-22T15:10:44;20.60;99.90
48686;DHT22;34485;51.536;3.816;2023-06-22T15:13:10;20.60;99.90
48686;DHT22;34485;51.536;3.816;2023-06-22T15:15:36;20.50;99.90
48686;DHT22;34485;51.536;3.816;2023-06-22T15:18:02;20.50;99.90
48686;DHT22;34485;51.536;3.816;2023-06-22T15:20:27;20.40;99.90
48686;DHT22;34485;51.536;3.816;2023-06-22T15:22:53;20.40;99.90
48686;DHT22;34485;51.536;3.816;2023-06-22T15:25:19;20.40;99.90
48686;DHT22;34485;51.536;3.816;2023-06-22T15:27:44;20.50;99.90
48686;DHT22;34485;51.536;3.816;2023-06-22T15:30:10;20.40;99.90
48686;DHT22;34485;51.536;3.816;2023-06-22T15:32:36;20.40;99.90
48686;DHT22;34485;51.536;3.816;2023-06-22T15:35:03;20.50;99.90